createdAt,value
2023-01-13T00:00:22.125Z,0.60
2023-01-13T00:03:05.319Z,0.60
2023-01-13T00:05:49.551Z,0.55
2023-01-13T00:08:33.031Z,0.52
2023-01-13T00:11:16.391Z,0.60
2023-01-13T00:13:59.381Z,0.57
2023-01-13T00:16:42.339Z,0.57
2023-01-13T00:19:25.230Z,0.63
2023-01-13T00:22:09.590Z,0.60
2023-01-13T00:24:52.485Z,0.65
2023-01-13T00:27:35.679Z,0.60
2023-01-13T00:30:18.812Z,0.60
2023-01-13T00:33:01.772Z,0.50
2023-01-13T00:35:44.727Z,0.50
2023-01-13T00:38:29.445Z,0.60
2023-01-13T00:41:15.174Z,0.60
2023-01-13T00:43:57.120Z,0.50
2023-01-13T00:46:40.069Z,0.50
2023-01-13T00:49:22.960Z,0.60
2023-01-13T00:52:06.100Z,0.57
2023-01-13T00:54:50.395Z,0.60
2023-01-13T00:57:33.367Z,0.52
2023-01-13T01:00:16.786Z,0.60
2023-01-13T01:03:00.162Z,0.50
2023-01-13T01:05:43.035Z,0.50
2023-01-13T01:08:25.994Z,0.40
2023-01-13T01:11:13.033Z,0.45
2023-01-13T01:13:57.336Z,0.40
2023-01-13T01:16:41.460Z,0.30
2023-01-13T01:19:24.559Z,0.40
2023-01-13T01:22:07.475Z,0.50
2023-01-13T01:24:50.404Z,0.45
2023-01-13T01:27:34.715Z,0.50
2023-01-13T01:30:17.727Z,0.50
2023-01-13T01:33:03.278Z,0.40
2023-01-13T01:35:46.151Z,0.50
2023-01-13T01:38:29.164Z,0.50
2023-01-13T01:41:17.250Z,0.40
2023-01-13T01:44:07.208Z,0.45
2023-01-13T01:46:50.302Z,0.50
2023-01-13T01:49:36.435Z,0.60
2023-01-13T01:52:22.867Z,0.68
2023-01-13T01:55:09.908Z,0.60
2023-01-13T01:57:56.257Z,0.90
2023-01-13T02:00:40.801Z,0.70
2023-01-13T02:03:24.292Z,0.63
2023-01-13T02:06:07.941Z,0.50
2023-01-13T02:08:50.835Z,0.57
2023-01-13T02:11:52.751Z,0.63
2023-01-13T02:14:36.722Z,0.68
2023-01-13T02:17:33.508Z,0.60
2023-01-13T02:20:44.015Z,0.40
2023-01-13T02:24:11.802Z,0.70
2023-01-13T02:27:37.828Z,0.77
2023-01-13T02:31:04.178Z,0.50
2023-01-13T02:34:02.091Z,0.73
2023-01-13T02:36:53.479Z,0.60
2023-01-13T02:39:43.241Z,0.80
2023-01-13T02:42:49.623Z,0.80
2023-01-13T02:45:38.925Z,0.77
2023-01-13T02:48:24.033Z,1.08
2023-01-13T02:51:10.696Z,0.88
2023-01-13T02:53:59.657Z,0.90
2023-01-13T02:56:46.174Z,0.73
2023-01-13T02:59:31.403Z,0.70
2023-01-13T03:02:20.224Z,0.52
2023-01-13T03:05:03.323Z,0.90
2023-01-13T03:08:18.635Z,0.75
2023-01-13T03:11:05.813Z,0.85
2023-01-13T03:13:59.035Z,0.80
2023-01-13T03:16:55.522Z,0.90
2023-01-13T03:19:47.671Z,0.70
2023-01-13T03:22:37.172Z,0.70
2023-01-13T03:25:27.169Z,0.60
2023-01-13T03:28:17.007Z,0.57
2023-01-13T03:31:05.942Z,0.70
2023-01-13T03:33:56.162Z,0.75
2023-01-13T03:36:42.080Z,0.70
2023-01-13T03:39:30.829Z,0.60
2023-01-13T03:42:18.635Z,0.57
2023-01-13T03:45:07.960Z,0.50
2023-01-13T03:47:55.068Z,0.50
2023-01-13T03:50:42.745Z,0.70
2023-01-13T03:53:31.888Z,0.60
2023-01-13T03:56:22.316Z,0.70
2023-01-13T03:59:09.971Z,0.65
2023-01-13T04:02:00.805Z,0.65
2023-01-13T04:04:49.333Z,1.00
2023-01-13T04:07:42.867Z,0.68
2023-01-13T04:10:32.278Z,0.52
2023-01-13T04:13:20.938Z,0.60
2023-01-13T04:16:06.293Z,0.60
2023-01-13T04:18:51.301Z,0.70
2023-01-13T04:21:35.279Z,0.47
2023-01-13T04:24:18.073Z,0.70
2023-01-13T04:27:02.248Z,0.60
2023-01-13T04:29:45.041Z,0.50
2023-01-13T04:32:27.835Z,0.57
2023-01-13T04:35:10.695Z,0.77
2023-01-13T04:37:53.790Z,0.50
2023-01-13T04:40:36.730Z,0.45
2023-01-13T04:43:21.143Z,0.50
2023-01-13T04:46:04.018Z,0.60
2023-01-13T04:48:46.885Z,0.65
2023-01-13T04:51:29.722Z,0.50
2023-01-13T04:54:12.866Z,0.60
2023-01-13T04:56:55.750Z,0.90
2023-01-13T04:59:41.989Z,0.77
2023-01-13T05:02:24.784Z,0.43
2023-01-13T05:05:08.641Z,0.50
2023-01-13T05:07:51.522Z,0.77
2023-01-13T05:10:34.323Z,0.50
2023-01-13T05:13:34.723Z,0.60
2023-01-13T05:16:36.420Z,0.50
2023-01-13T05:19:19.222Z,0.60
2023-01-13T05:22:20.441Z,0.85
2023-01-13T05:25:20.606Z,0.80
2023-01-13T05:28:03.465Z,0.70
2023-01-13T05:30:49.266Z,0.57
2023-01-13T05:33:35.723Z,0.60
2023-01-13T05:36:18.777Z,0.77
2023-01-13T05:39:01.741Z,0.90
2023-01-13T05:42:02.213Z,0.85
2023-01-13T05:44:44.979Z,0.82
2023-01-13T05:47:27.797Z,0.70
2023-01-13T05:50:12.350Z,0.80
2023-01-13T05:55:40.513Z,0.70
2023-01-13T05:58:25.836Z,0.80
2023-01-13T06:01:10.527Z,0.70
2023-01-13T06:03:53.325Z,1.17
2023-01-13T06:06:37.524Z,2.10
2023-01-13T06:09:21.060Z,2.13
2023-01-13T06:12:03.944Z,1.02
2023-01-13T06:14:46.719Z,0.90
2023-01-13T06:17:29.621Z,0.52
2023-01-13T06:20:13.759Z,0.98
2023-01-13T06:22:58.945Z,0.93
2023-01-13T06:25:47.717Z,0.80
2023-01-13T06:28:30.548Z,0.60
2023-01-13T06:31:13.699Z,0.65
2023-01-13T06:34:01.347Z,0.70
2023-01-13T06:36:47.266Z,0.90
2023-01-13T06:39:32.621Z,0.70
2023-01-13T06:42:33.441Z,0.57
2023-01-13T06:45:16.341Z,0.60
2023-01-13T06:48:00.764Z,0.70
2023-01-13T06:50:43.623Z,0.85
2023-01-13T06:53:26.463Z,0.52
2023-01-13T06:56:10.651Z,0.20
2023-01-13T06:58:53.542Z,0.38
2023-01-13T07:01:36.462Z,0.60
2023-01-13T07:04:19.646Z,0.90
2023-01-13T07:07:02.451Z,0.73
2023-01-13T07:09:45.304Z,0.60
2023-01-13T07:12:29.484Z,0.80
2023-01-13T07:15:20.403Z,0.70
2023-01-13T07:18:03.739Z,0.55
2023-01-13T07:20:53.131Z,0.50
2023-01-13T07:23:38.000Z,0.40
2023-01-13T07:26:21.894Z,0.50
2023-01-13T07:29:06.069Z,0.60
2023-01-13T07:31:50.242Z,0.50
2023-01-13T07:34:33.320Z,0.70
2023-01-13T07:37:16.314Z,0.70
2023-01-13T07:39:59.123Z,0.88
2023-01-13T07:42:59.431Z,0.70
2023-01-13T07:45:43.660Z,0.90
2023-01-13T07:48:26.706Z,0.80
2023-01-13T07:51:11.485Z,0.50
2023-01-13T07:53:54.380Z,0.60
2023-01-13T07:56:37.206Z,0.60
2023-01-13T07:59:20.053Z,0.60
2023-01-13T08:02:04.477Z,0.40
2023-01-13T08:04:47.392Z,0.47
2023-01-13T08:07:30.215Z,0.45
2023-01-13T08:10:13.226Z,0.30
2023-01-13T08:13:13.454Z,0.70
2023-01-13T08:16:01.863Z,3.92
2023-01-13T08:18:46.049Z,3.80
2023-01-13T08:21:28.856Z,2.00
2023-01-13T08:24:11.719Z,1.33
2023-01-13T08:26:54.613Z,0.80
2023-01-13T08:29:37.477Z,5.57
2023-01-13T08:32:20.269Z,7.20
2023-01-13T08:35:04.551Z,5.15
2023-01-13T08:37:48.231Z,2.22
2023-01-13T08:40:31.226Z,3.03
2023-01-13T08:43:14.149Z,3.25
2023-01-13T08:45:58.912Z,2.90
2023-01-13T08:48:41.776Z,2.90
2023-01-13T08:51:25.937Z,1.60
2023-01-13T08:54:08.830Z,1.40
2023-01-13T08:56:51.673Z,0.73
2023-01-13T08:59:34.994Z,0.70
2023-01-13T09:02:20.221Z,1.35
2023-01-13T09:05:04.565Z,0.93
2023-01-13T09:07:48.714Z,1.10
2023-01-13T09:10:32.399Z,1.00
2023-01-13T09:13:15.453Z,0.90
2023-01-13T09:15:58.340Z,1.20
2023-01-13T09:18:41.142Z,1.13
2023-01-13T09:21:24.065Z,1.00
2023-01-13T09:24:08.973Z,0.90
2023-01-13T09:26:52.148Z,0.75
2023-01-13T09:29:34.982Z,0.77
2023-01-13T09:32:17.836Z,0.80
2023-01-13T09:35:02.731Z,0.90
2023-01-13T09:37:45.857Z,1.08
2023-01-13T09:40:30.141Z,1.00
2023-01-13T09:43:37.400Z,0.90
2023-01-13T09:46:41.306Z,1.02
2023-01-13T09:49:28.420Z,0.80
2023-01-13T09:52:15.788Z,1.02
2023-01-13T09:55:05.495Z,1.10
2023-01-13T09:57:49.855Z,1.10
2023-01-13T10:00:40.009Z,1.10
2023-01-13T10:03:26.322Z,1.00
2023-01-13T10:06:16.682Z,2.17
2023-01-13T10:08:59.521Z,1.67
2023-01-13T10:12:03.081Z,1.60
2023-01-13T10:14:54.030Z,1.17
2023-01-13T10:17:45.771Z,0.80
2023-01-13T10:20:36.321Z,1.00
2023-01-13T10:23:39.719Z,0.70
2023-01-13T10:26:34.994Z,0.68
2023-01-13T10:29:21.598Z,0.60
2023-01-13T10:32:06.156Z,0.75
2023-01-13T10:34:51.153Z,0.70
2023-01-13T10:37:34.003Z,0.60
2023-01-13T10:40:19.613Z,0.50
2023-01-13T10:43:06.996Z,0.68
2023-01-13T10:45:58.021Z,0.80
2023-01-13T10:48:44.052Z,0.73
2023-01-13T10:51:28.319Z,0.65
2023-01-13T10:54:20.392Z,0.80
2023-01-13T10:57:20.134Z,0.77
2023-01-13T11:00:05.336Z,0.70
2023-01-13T11:03:16.899Z,0.50
2023-01-13T11:06:01.750Z,0.70
2023-01-13T11:08:46.630Z,0.57
2023-01-13T11:11:40.308Z,0.50
2023-01-13T11:14:40.290Z,0.55
2023-01-13T11:17:35.001Z,0.60
2023-01-13T11:20:22.672Z,0.55
2023-01-13T11:23:15.624Z,0.80
2023-01-13T11:26:03.726Z,0.50
2023-01-13T11:28:54.412Z,0.50
2023-01-13T11:31:41.961Z,0.60
2023-01-13T11:34:31.247Z,0.60
2023-01-13T11:37:20.604Z,0.60
2023-01-13T11:40:08.622Z,0.60
2023-01-13T11:42:56.990Z,1.65
2023-01-13T11:45:43.588Z,0.82
2023-01-13T11:48:30.216Z,0.80
2023-01-13T11:51:28.226Z,1.08
2023-01-13T11:54:28.229Z,1.27
2023-01-13T11:57:41.293Z,1.30
2023-01-13T12:00:33.952Z,1.00
2023-01-13T12:03:25.571Z,1.15
2023-01-13T12:06:18.466Z,1.25
2023-01-13T12:09:30.964Z,0.90
2023-01-13T12:12:27.842Z,1.00
2023-01-13T12:15:35.954Z,1.00
2023-01-13T12:18:35.797Z,1.23
2023-01-13T12:21:23.087Z,1.38
2023-01-13T12:24:19.039Z,1.60
2023-01-13T12:27:07.146Z,1.58
2023-01-13T12:29:55.534Z,1.40
2023-01-13T12:32:41.205Z,1.50
2023-01-13T12:35:37.787Z,1.67
2023-01-13T12:38:33.541Z,1.20
2023-01-13T12:41:32.487Z,1.30
2023-01-13T12:44:17.299Z,1.13
2023-01-13T12:47:01.061Z,1.88
2023-01-13T12:49:45.952Z,1.53
2023-01-13T12:52:31.526Z,1.20
2023-01-13T12:55:19.977Z,0.98
2023-01-13T12:58:18.945Z,1.10
2023-01-13T13:01:11.882Z,1.00
2023-01-13T13:04:10.973Z,1.15
2023-01-13T13:07:08.782Z,1.20
2023-01-13T13:09:57.233Z,0.90
2023-01-13T13:13:15.541Z,0.88
2023-01-13T13:16:46.284Z,1.15
2023-01-13T13:19:56.607Z,0.90
2023-01-13T13:22:45.666Z,0.85
2023-01-13T13:25:28.615Z,0.95
2023-01-13T13:28:20.144Z,1.05
2023-01-13T13:31:20.554Z,1.45
2023-01-13T13:34:26.030Z,0.77
2023-01-13T13:37:22.840Z,0.80
2023-01-13T13:40:29.090Z,0.88
2023-01-13T13:43:31.637Z,0.80
2023-01-13T13:46:43.249Z,0.73
2023-01-13T13:49:40.783Z,0.50
2023-01-13T13:52:30.606Z,0.57
2023-01-13T13:55:18.811Z,0.50
2023-01-13T13:58:02.608Z,1.67
2023-01-13T14:00:49.100Z,1.50
2023-01-13T14:03:35.918Z,1.30
2023-01-13T14:06:24.269Z,1.05
2023-01-13T14:09:17.631Z,0.60
2023-01-13T14:12:03.249Z,0.30
2023-01-13T14:14:47.285Z,0.70
2023-01-13T14:17:31.958Z,0.40
2023-01-13T14:23:05.244Z,0.30
2023-01-13T14:25:49.440Z,0.60
2023-01-13T14:28:36.597Z,0.75
2023-01-13T14:31:19.743Z,0.30
2023-01-13T14:34:31.207Z,0.38
2023-01-13T14:37:23.916Z,0.85
2023-01-13T14:40:44.758Z,0.60
2023-01-13T14:43:27.693Z,0.40
2023-01-13T14:46:11.035Z,0.45
2023-01-13T14:49:01.213Z,3.50
2023-01-13T14:51:44.039Z,7.07
2023-01-13T14:54:48.366Z,4.85
2023-01-13T14:57:33.443Z,1.92
2023-01-13T15:00:22.779Z,0.90
2023-01-13T15:03:08.652Z,0.60
2023-01-13T15:05:54.264Z,0.30
2023-01-13T15:08:38.553Z,0.40
2023-01-13T15:11:29.062Z,0.38
2023-01-13T15:14:13.469Z,0.40
2023-01-13T15:16:57.763Z,0.32
2023-01-13T15:19:40.593Z,0.40
2023-01-13T15:22:23.357Z,0.30
2023-01-13T15:25:09.582Z,0.40
2023-01-13T15:27:54.253Z,0.40
2023-01-13T15:33:22.207Z,0.30
2023-01-13T15:36:08.089Z,0.30
2023-01-13T15:38:51.298Z,0.40
2023-01-13T15:41:51.748Z,0.17
2023-01-13T15:44:51.968Z,0.30
2023-01-13T15:47:36.530Z,0.38
2023-01-13T15:53:03.945Z,0.35
2023-01-13T15:55:51.510Z,0.57
2023-01-13T15:58:34.295Z,0.50
2023-01-13T16:01:17.180Z,0.30
2023-01-13T16:04:01.311Z,0.20
2023-01-13T16:06:44.441Z,1.52
2023-01-13T16:09:27.219Z,2.00
2023-01-13T16:12:10.048Z,1.27
2023-01-13T16:14:52.889Z,1.60
2023-01-13T16:17:36.600Z,0.75
2023-01-13T16:20:21.228Z,0.60
2023-01-13T16:25:47.704Z,0.52
2023-01-13T16:28:30.574Z,0.80
2023-01-13T16:31:19.981Z,0.50
2023-01-13T16:34:04.166Z,0.52
2023-01-13T16:36:48.496Z,0.90
2023-01-13T16:39:31.892Z,0.80
2023-01-13T16:42:14.972Z,0.68
2023-01-13T16:44:58.699Z,0.60
2023-01-13T16:47:42.416Z,0.60
2023-01-13T16:50:35.051Z,0.50
2023-01-13T16:53:19.270Z,0.50
2023-01-13T16:56:02.260Z,0.57
2023-01-13T16:58:45.039Z,0.55
2023-01-13T17:01:30.419Z,0.77
2023-01-13T17:04:16.972Z,1.10
2023-01-13T17:07:03.957Z,0.75
2023-01-13T17:09:48.124Z,0.70
2023-01-13T17:12:30.963Z,1.00
2023-01-13T17:15:14.591Z,1.05
2023-01-13T17:17:57.430Z,0.95
2023-01-13T17:20:40.253Z,1.15
2023-01-13T17:23:23.072Z,1.30
2023-01-13T17:26:07.488Z,1.30
2023-01-13T17:28:50.254Z,1.00
2023-01-13T17:31:33.541Z,1.42
2023-01-13T17:34:16.371Z,1.20
2023-01-13T17:36:59.180Z,1.30
2023-01-13T17:39:44.169Z,1.65
2023-01-13T17:42:29.690Z,1.58
2023-01-13T17:45:12.900Z,2.40
2023-01-13T17:47:57.935Z,1.58
2023-01-13T17:50:41.182Z,1.38
2023-01-13T17:53:24.002Z,0.93
2023-01-13T17:56:07.930Z,1.10
2023-01-13T17:58:52.088Z,1.10
2023-01-13T18:01:35.002Z,1.00
2023-01-13T18:04:19.662Z,1.10
2023-01-13T18:09:45.079Z,1.58
2023-01-13T18:12:27.878Z,1.13
2023-01-13T18:15:12.147Z,1.17
2023-01-13T18:17:54.946Z,1.23
2023-01-13T18:20:55.196Z,1.08
2023-01-13T18:23:55.352Z,1.30
2023-01-13T18:26:55.636Z,1.23
2023-01-13T18:29:38.434Z,1.40
2023-01-13T18:32:24.186Z,1.10
2023-01-13T18:35:10.253Z,1.10
2023-01-13T18:37:53.223Z,1.00
2023-01-13T18:40:36.027Z,0.68
2023-01-13T18:43:17.888Z,1.40
2023-01-13T18:46:00.721Z,1.00
2023-01-13T18:48:44.906Z,1.10
2023-01-13T18:51:27.802Z,1.17
2023-01-13T18:54:10.702Z,1.20
2023-01-13T18:56:53.504Z,1.08
2023-01-13T18:59:36.313Z,1.10
2023-01-13T19:02:21.625Z,1.40
2023-01-13T19:05:06.765Z,1.20
2023-01-13T19:07:51.792Z,1.00
2023-01-13T19:10:34.688Z,1.38
2023-01-13T19:13:18.558Z,1.10
2023-01-13T19:16:05.605Z,1.55
2023-01-13T19:18:49.769Z,1.55
2023-01-13T19:21:33.945Z,1.60
2023-01-13T19:24:16.743Z,1.98
2023-01-13T19:26:59.546Z,1.80
2023-01-13T19:29:43.284Z,1.63
2023-01-13T19:32:35.908Z,1.50
2023-01-13T19:35:19.928Z,1.85
2023-01-13T19:38:04.336Z,1.80
2023-01-13T19:40:53.619Z,2.33
2023-01-13T19:43:56.091Z,1.90
2023-01-13T19:46:39.022Z,1.90
2023-01-13T19:49:21.862Z,2.10
2023-01-13T19:52:05.128Z,2.15
2023-01-13T19:54:49.536Z,2.60
2023-01-13T19:57:32.351Z,2.30
2023-01-13T20:00:20.447Z,2.10
2023-01-13T20:03:08.025Z,2.30
2023-01-13T20:05:51.248Z,2.20
2023-01-13T20:08:34.072Z,2.47
2023-01-13T20:11:30.881Z,2.13
2023-01-13T20:14:13.732Z,1.98
2023-01-13T20:16:56.568Z,2.50
2023-01-13T20:19:39.408Z,2.00
2023-01-13T20:22:22.196Z,2.25
2023-01-13T20:25:05.520Z,2.30
2023-01-13T20:27:49.895Z,2.38
2023-01-13T20:30:32.732Z,2.35
2023-01-13T20:33:15.530Z,2.00
2023-01-13T20:35:59.008Z,2.40
2023-01-13T20:38:41.870Z,2.10
2023-01-13T20:41:42.020Z,2.15
2023-01-13T20:44:26.195Z,1.70
2023-01-13T20:47:09.270Z,1.75
2023-01-13T20:49:52.128Z,1.70
2023-01-13T20:52:34.918Z,1.63
2023-01-13T20:55:17.811Z,3.83
2023-01-13T20:58:00.578Z,2.67
2023-01-13T21:00:44.765Z,3.17
2023-01-13T21:03:27.572Z,2.00
2023-01-13T21:06:10.445Z,2.67
2023-01-13T21:08:54.211Z,3.10
2023-01-13T21:11:54.447Z,2.97
2023-01-13T21:14:54.733Z,15.77
2023-01-13T21:17:56.408Z,5.43
2023-01-13T21:20:40.083Z,3.72
2023-01-13T21:23:22.831Z,2.90
2023-01-13T21:26:05.943Z,7.82
2023-01-13T21:28:49.688Z,22.73
2023-01-13T21:31:32.503Z,10.90
2023-01-13T21:34:16.866Z,10.05
2023-01-13T21:37:00.143Z,12.27
2023-01-13T21:39:43.257Z,4.80
2023-01-13T21:42:43.393Z,2.70
2023-01-13T21:45:43.665Z,1.75
2023-01-13T21:48:26.480Z,1.50
2023-01-13T21:51:10.628Z,1.63
2023-01-13T21:53:54.130Z,1.40
2023-01-13T21:56:36.969Z,1.10
2023-01-13T21:59:19.753Z,1.20
2023-01-13T22:02:23.635Z,1.30
2023-01-13T22:05:09.444Z,1.83
2023-01-13T22:10:36.923Z,1.50
2023-01-13T22:13:39.421Z,1.25
2023-01-13T22:16:22.313Z,1.63
2023-01-13T22:19:05.197Z,1.20
2023-01-13T22:21:48.023Z,1.70
2023-01-13T22:24:32.348Z,1.48
2023-01-13T22:27:18.317Z,1.98
2023-01-13T22:30:01.127Z,2.50
2023-01-13T22:32:44.004Z,2.00
2023-01-13T22:35:26.795Z,2.22
2023-01-13T22:38:12.072Z,2.00
2023-01-13T22:41:00.620Z,2.10
2023-01-13T22:43:43.402Z,2.10
2023-01-13T22:46:26.328Z,2.10
2023-01-13T22:49:09.116Z,2.00
2023-01-13T22:51:51.988Z,2.50
2023-01-13T22:54:34.749Z,2.13
2023-01-13T22:57:18.948Z,1.80
2023-01-13T23:00:02.103Z,2.40
2023-01-13T23:02:44.901Z,2.17
2023-01-13T23:05:28.155Z,2.70
2023-01-13T23:08:12.368Z,2.00
2023-01-13T23:11:01.752Z,1.90
2023-01-13T23:13:46.419Z,2.00
2023-01-13T23:16:31.366Z,1.98
2023-01-13T23:19:14.328Z,2.05
2023-01-13T23:21:57.118Z,2.10
2023-01-13T23:24:39.903Z,2.17
2023-01-13T23:27:22.714Z,2.40
2023-01-13T23:30:09.386Z,2.28
2023-01-13T23:32:52.177Z,1.88
2023-01-13T23:35:34.933Z,2.30
2023-01-13T23:38:17.744Z,2.55
2023-01-13T23:41:00.918Z,2.50
2023-01-13T23:43:43.912Z,2.92
2023-01-13T23:46:29.482Z,2.40
2023-01-13T23:49:12.256Z,2.10
2023-01-13T23:51:55.242Z,2.25
2023-01-13T23:54:38.033Z,2.47
2023-01-13T23:57:20.817Z,2.60
